sensor_id;sensor_type;location;lat;lon;timestamp;pressure;altitude;pressure_sealevel;temperature;humidity
70815;BME280;58428;49.478;10.986;2022-11-15T00:00:57;98382.94;;;7.47;100.00
70815;BME280;58428;49.478;10.986;2022-11-15T00:03:24;98377.44;;;7.52;100.00
70815;BME280;58428;49.478;10.986;2022-11-15T00:05:50;98375.22;;;7.54;100.00
70815;BME280;58428;49.478;10.986;2022-11-15T00:08:19;98371.63;;;7.59;100.00
70815;BME280;58428;49.478;10.986;2022-11-15T00:10:55;98363.28;;;7.69;100.00
70815;BME280;58428;49.478;10.986;2022-11-15T00:13:23;98372.00;;;7.74;100.00
70815;BME280;58428;49.478;10.986;2022-11-15T00:15:48;98366.81;;;7.77;100.00
70815;BME280;58428;49.478;10.986;2022-11-15T00:18:14;98368.72;;;7.77;100.00
70815;BME280;58428;49.478;10.986;2022-11-15T00:20:40;98370.00;;;7.79;100.00
70815;BME280;58428;49.478;10.986;2022-11-15T00:23:06;98367.00;;;7.81;100.00
70815;BME280;58428;49.478;10.986;2022-11-15T00:25:32;98369.50;;;7.77;100.00
70815;BME280;58428;49.478;10.986;2022-11-15T00:27:58;98369.81;;;7.76;100.00
70815;BME280;58428;49.478;10.986;2022-11-15T00:30:24;98364.56;;;7.71;100.00
70815;BME280;58428;49.478;10.986;2022-11-15T00:32:50;98369.91;;;7.63;100.00
70815;BME280;58428;49.478;10.986;2022-11-15T00:35:16;98374.31;;;7.59;100.00
70815;BME280;58428;49.478;10.986;2022-11-15T00:37:41;98371.09;;;7.57;100.00
70815;BME280;58428;49.478;10.986;2022-11-15T00:40:10;98365.09;;;7.51;100.00
70815;BME280;58428;49.478;10.986;2022-11-15T00:42:35;98367.09;;;7.46;100.00
70815;BME280;58428;49.478;10.986;2022-11-15T00:45:01;98369.91;;;7.41;100.00
70815;BME280;58428;49.478;10.986;2022-11-15T00:47:27;98372.91;;;7.39;100.00
70815;BME280;58428;49.478;10.986;2022-11-15T00:49:55;98370.81;;;7.36;100.00
70815;BME280;58428;49.478;10.986;2022-11-15T00:52:21;98370.44;;;7.30;100.00
70815;BME280;58428;49.478;10.986;2022-11-15T00:54:48;98374.84;;;7.26;100.00
70815;BME280;58428;49.478;10.986;2022-11-15T00:57:13;98365.00;;;7.21;100.00
70815;BME280;58428;49.478;10.986;2022-11-15T00:59:39;98354.88;;;7.18;100.00
70815;BME280;58428;49.478;10.986;2022-11-15T01:02:06;98353.91;;;7.14;100.00
70815;BME280;58428;49.478;10.986;2022-11-15T01:04:36;98354.38;;;7.16;100.00
70815;BME280;58428;49.478;10.986;2022-11-15T01:07:01;98359.78;;;7.16;100.00
70815;BME280;58428;49.478;10.986;2022-11-15T01:09:26;98353.41;;;7.12;100.00
70815;BME280;58428;49.478;10.986;2022-11-15T01:11:52;98354.97;;;7.13;100.00
70815;BME280;58428;49.478;10.986;2022-11-15T01:14:17;98349.41;;;7.10;100.00
70815;BME280;58428;49.478;10.986;2022-11-15T01:16:44;98350.22;;;7.10;100.00
70815;BME280;58428;49.478;10.986;2022-11-15T01:19:11;98349.53;;;7.05;100.00
70815;BME280;58428;49.478;10.986;2022-11-15T01:21:37;98354.44;;;7.03;100.00
70815;BME280;58428;49.478;10.986;2022-11-15T01:24:02;98349.06;;;7.03;100.00
70815;BME280;58428;49.478;10.986;2022-11-15T01:26:31;98345.75;;;7.06;100.00
70815;BME280;58428;49.478;10.986;2022-11-15T01:28:57;98342.06;;;7.02;100.00
70815;BME280;58428;49.478;10.986;2022-11-15T01:31:23;98337.47;;;7.02;100.00
70815;BME280;58428;49.478;10.986;2022-11-15T01:33:49;98341.28;;;7.01;100.00
70815;BME280;58428;49.478;10.986;2022-11-15T01:36:20;98330.22;;;7.03;100.00
70815;BME280;58428;49.478;10.986;2022-11-15T01:38:58;98328.75;;;6.97;100.00
70815;BME280;58428;49.478;10.986;2022-11-15T01:41:30;98335.22;;;6.96;100.00
70815;BME280;58428;49.478;10.986;2022-11-15T01:44:25;98330.47;;;6.93;100.00
70815;BME280;58428;49.478;10.986;2022-11-15T01:46:47;98327.94;;;6.96;100.00
70815;BME280;58428;49.478;10.986;2022-11-15T01:49:16;98329.75;;;7.01;100.00
70815;BME280;58428;49.478;10.986;2022-11-15T01:51:44;98320.56;;;7.02;100.00
70815;BME280;58428;49.478;10.986;2022-11-15T01:54:15;98314.88;;;7.03;100.00
70815;BME280;58428;49.478;10.986;2022-11-15T01:56:50;98305.41;;;7.06;100.00
70815;BME280;58428;49.478;10.986;2022-11-15T01:59:18;98302.91;;;7.09;100.00
70815;BME280;58428;49.478;10.986;2022-11-15T02:01:44;98293.91;;;7.14;100.00
70815;BME280;58428;49.478;10.986;2022-11-15T02:04:30;98288.84;;;7.12;100.00
70815;BME280;58428;49.478;10.986;2022-11-15T02:06:58;98294.34;;;7.07;100.00
70815;BME280;58428;49.478;10.986;2022-11-15T02:09:25;98296.53;;;7.05;100.00
70815;BME280;58428;49.478;10.986;2022-11-15T02:11:50;98300.75;;;6.98;100.00
70815;BME280;58428;49.478;10.986;2022-11-15T02:14:17;98292.34;;;6.91;100.00
70815;BME280;58428;49.478;10.986;2022-11-15T02:17:07;98296.88;;;6.91;100.00
70815;BME280;58428;49.478;10.986;2022-11-15T02:30:44;98280.81;;;6.77;100.00
70815;BME280;58428;49.478;10.986;2022-11-15T02:36:01;98270.06;;;6.77;100.00
70815;BME280;58428;49.478;10.986;2022-11-15T02:38:36;98265.66;;;6.81;100.00
70815;BME280;58428;49.478;10.986;2022-11-15T02:41:17;98265.78;;;6.76;100.00
70815;BME280;58428;49.478;10.986;2022-11-15T02:44:01;98267.78;;;6.71;100.00
70815;BME280;58428;49.478;10.986;2022-11-15T02:49:34;98256.06;;;6.67;100.00
70815;BME280;58428;49.478;10.986;2022-11-15T02:52:03;98267.44;;;6.64;100.00
70815;BME280;58428;49.478;10.986;2022-11-15T02:54:31;98250.50;;;6.63;100.00
70815;BME280;58428;49.478;10.986;2022-11-15T02:57:10;98249.41;;;6.64;100.00
70815;BME280;58428;49.478;10.986;2022-11-15T02:59:59;98234.38;;;6.63;100.00
70815;BME280;58428;49.478;10.986;2022-11-15T03:02:42;98226.31;;;6.63;100.00
70815;BME280;58428;49.478;10.986;2022-11-15T03:08:42;98227.97;;;6.51;100.00
70815;BME280;58428;49.478;10.986;2022-11-15T03:11:15;98236.44;;;6.45;100.00
70815;BME280;58428;49.478;10.986;2022-11-15T03:13:59;98227.47;;;6.49;100.00
70815;BME280;58428;49.478;10.986;2022-11-15T03:20:03;98232.06;;;6.49;100.00
70815;BME280;58428;49.478;10.986;2022-11-15T03:22:33;98235.34;;;6.46;100.00
70815;BME280;58428;49.478;10.986;2022-11-15T03:25:03;98224.88;;;6.44;100.00
70815;BME280;58428;49.478;10.986;2022-11-15T03:27:36;98223.41;;;6.38;100.00
70815;BME280;58428;49.478;10.986;2022-11-15T03:30:05;98227.00;;;6.34;100.00
70815;BME280;58428;49.478;10.986;2022-11-15T03:32:37;98217.69;;;6.31;100.00
70815;BME280;58428;49.478;10.986;2022-11-15T03:35:07;98211.81;;;6.29;100.00
70815;BME280;58428;49.478;10.986;2022-11-15T03:37:51;98209.72;;;6.26;100.00
70815;BME280;58428;49.478;10.986;2022-11-15T03:40:27;98213.53;;;6.25;100.00
70815;BME280;58428;49.478;10.986;2022-11-15T03:43:09;98211.72;;;6.21;100.00
70815;BME280;58428;49.478;10.986;2022-11-15T03:45:44;98207.31;;;6.25;100.00
70815;BME280;58428;49.478;10.986;2022-11-15T03:48:24;98199.16;;;6.30;100.00
70815;BME280;58428;49.478;10.986;2022-11-15T03:50:51;98205.13;;;6.27;100.00
70815;BME280;58428;49.478;10.986;2022-11-15T03:53:18;98206.34;;;6.21;100.00
70815;BME280;58428;49.478;10.986;2022-11-15T03:55:43;98203.97;;;6.20;100.00
70815;BME280;58428;49.478;10.986;2022-11-15T03:58:09;98200.91;;;6.13;100.00
70815;BME280;58428;49.478;10.986;2022-11-15T04:00:35;98205.41;;;6.04;100.00
70815;BME280;58428;49.478;10.986;2022-11-15T04:03:02;98211.38;;;6.01;100.00
70815;BME280;58428;49.478;10.986;2022-11-15T04:05:27;98209.78;;;6.00;100.00
70815;BME280;58428;49.478;10.986;2022-11-15T04:07:55;98211.38;;;6.01;100.00
70815;BME280;58428;49.478;10.986;2022-11-15T04:10:23;98217.84;;;6.00;100.00
70815;BME280;58428;49.478;10.986;2022-11-15T04:12:49;98213.19;;;5.92;100.00
70815;BME280;58428;49.478;10.986;2022-11-15T04:15:20;98218.88;;;5.90;100.00
70815;BME280;58428;49.478;10.986;2022-11-15T04:17:54;98226.22;;;5.85;100.00
70815;BME280;58428;49.478;10.986;2022-11-15T04:20:40;98217.06;;;5.86;100.00
70815;BME280;58428;49.478;10.986;2022-11-15T04:23:24;98211.09;;;5.89;100.00
70815;BME280;58428;49.478;10.986;2022-11-15T04:26:16;98210.00;;;5.90;100.00
70815;BME280;58428;49.478;10.986;2022-11-15T04:28:45;98221.66;;;5.86;100.00
70815;BME280;58428;49.478;10.986;2022-11-15T04:31:32;98205.03;;;5.84;100.00
70815;BME280;58428;49.478;10.986;2022-11-15T04:33:59;98203.34;;;5.87;100.00
70815;BME280;58428;49.478;10.986;2022-11-15T04:36:25;98197.38;;;5.90;100.00
70815;BME280;58428;49.478;10.986;2022-11-15T04:39:09;98198.19;;;5.91;100.00
70815;BME280;58428;49.478;10.986;2022-11-15T04:41:35;98201.94;;;5.90;100.00
70815;BME280;58428;49.478;10.986;2022-11-15T04:44:00;98193.41;;;5.88;100.00
70815;BME280;58428;49.478;10.986;2022-11-15T04:46:26;98184.47;;;5.92;100.00
70815;BME280;58428;49.478;10.986;2022-11-15T04:48:52;98182.66;;;5.88;100.00
70815;BME280;58428;49.478;10.986;2022-11-15T04:51:20;98188.34;;;5.87;100.00
70815;BME280;58428;49.478;10.986;2022-11-15T04:53:45;98176.00;;;5.86;100.00
70815;BME280;58428;49.478;10.986;2022-11-15T04:56:11;98190.22;;;5.86;100.00
70815;BME280;58428;49.478;10.986;2022-11-15T04:58:40;98170.84;;;5.89;100.00
70815;BME280;58428;49.478;10.986;2022-11-15T05:01:12;98163.28;;;5.91;100.00
70815;BME280;58428;49.478;10.986;2022-11-15T05:03:40;98161.66;;;5.90;100.00
70815;BME280;58428;49.478;10.986;2022-11-15T05:06:23;98160.69;;;5.86;100.00
70815;BME280;58428;49.478;10.986;2022-11-15T05:08:49;98158.91;;;5.82;100.00
70815;BME280;58428;49.478;10.986;2022-11-15T05:11:14;98155.44;;;5.81;100.00
70815;BME280;58428;49.478;10.986;2022-11-15T05:13:41;98154.34;;;5.82;100.00
70815;BME280;58428;49.478;10.986;2022-11-15T05:16:06;98159.69;;;5.82;100.00
70815;BME280;58428;49.478;10.986;2022-11-15T05:18:33;98159.69;;;5.82;100.00
70815;BME280;58428;49.478;10.986;2022-11-15T05:21:11;98157.03;;;5.82;100.00
70815;BME280;58428;49.478;10.986;2022-11-15T05:23:39;98158.91;;;5.82;100.00
70815;BME280;58428;49.478;10.986;2022-11-15T05:26:07;98159.81;;;5.77;100.00
70815;BME280;58428;49.478;10.986;2022-11-15T05:28:33;98158.53;;;5.75;100.00
70815;BME280;58428;49.478;10.986;2022-11-15T05:31:09;98155.53;;;5.76;100.00
70815;BME280;58428;49.478;10.986;2022-11-15T05:33:37;98163.88;;;5.75;100.00
70815;BME280;58428;49.478;10.986;2022-11-15T05:36:15;98157.00;;;5.69;100.00
70815;BME280;58428;49.478;10.986;2022-11-15T05:38:43;98154.16;;;5.65;100.00
70815;BME280;58428;49.478;10.986;2022-11-15T05:41:09;98165.47;;;5.62;100.00
70815;BME280;58428;49.478;10.986;2022-11-15T05:43:38;98155.16;;;5.56;100.00
70815;BME280;58428;49.478;10.986;2022-11-15T05:46:04;98152.75;;;5.54;100.00
70815;BME280;58428;49.478;10.986;2022-11-15T05:48:31;98153.56;;;5.55;100.00
70815;BME280;58428;49.478;10.986;2022-11-15T05:50:57;98147.69;;;5.53;100.00
70815;BME280;58428;49.478;10.986;2022-11-15T05:53:24;98148.47;;;5.53;100.00
70815;BME280;58428;49.478;10.986;2022-11-15T05:55:52;98148.47;;;5.53;100.00
70815;BME280;58428;49.478;10.986;2022-11-15T05:58:18;98138.56;;;5.54;100.00
70815;BME280;58428;49.478;10.986;2022-11-15T06:00:45;98137.16;;;5.56;100.00
70815;BME280;58428;49.478;10.986;2022-11-15T06:03:11;98142.81;;;5.55;100.00
70815;BME280;58428;49.478;10.986;2022-11-15T06:05:36;98138.84;;;5.52;100.00
70815;BME280;58428;49.478;10.986;2022-11-15T06:08:02;98142.63;;;5.51;100.00
70815;BME280;58428;49.478;10.986;2022-11-15T06:10:28;98144.72;;;5.54;100.00
70815;BME280;58428;49.478;10.986;2022-11-15T06:13:03;98149.78;;;5.56;100.00
70815;BME280;58428;49.478;10.986;2022-11-15T06:15:32;98150.28;;;5.58;100.00
70815;BME280;58428;49.478;10.986;2022-11-15T06:17:59;98152.97;;;5.58;100.00
70815;BME280;58428;49.478;10.986;2022-11-15T06:20:26;98158.63;;;5.56;100.00
70815;BME280;58428;49.478;10.986;2022-11-15T06:22:59;98157.16;;;5.50;100.00
70815;BME280;58428;49.478;10.986;2022-11-15T06:25:27;98158.84;;;5.47;100.00
70815;BME280;58428;49.478;10.986;2022-11-15T06:28:13;98167.78;;;5.42;100.00
70815;BME280;58428;49.478;10.986;2022-11-15T06:30:38;98163.13;;;5.34;100.00
70815;BME280;58428;49.478;10.986;2022-11-15T06:33:05;98164.41;;;5.37;100.00
70815;BME280;58428;49.478;10.986;2022-11-15T06:35:33;98162.81;;;5.36;100.00
70815;BME280;58428;49.478;10.986;2022-11-15T06:38:05;98165.00;;;5.34;100.00
70815;BME280;58428;49.478;10.986;2022-11-15T06:40:33;98155.38;;;5.33;100.00
70815;BME280;58428;49.478;10.986;2022-11-15T06:43:03;98163.91;;;5.35;100.00
70815;BME280;58428;49.478;10.986;2022-11-15T06:45:30;98163.41;;;5.33;100.00
70815;BME280;58428;49.478;10.986;2022-11-15T06:47:57;98156.34;;;5.37;100.00
70815;BME280;58428;49.478;10.986;2022-11-15T06:50:23;98159.03;;;5.37;100.00
70815;BME280;58428;49.478;10.986;2022-11-15T06:52:50;98153.38;;;5.38;100.00
70815;BME280;58428;49.478;10.986;2022-11-15T06:55:16;98152.69;;;5.46;100.00
70815;BME280;58428;49.478;10.986;2022-11-15T06:57:52;98148.88;;;5.47;100.00
70815;BME280;58428;49.478;10.986;2022-11-15T07:00:20;98154.47;;;5.50;100.00
70815;BME280;58428;49.478;10.986;2022-11-15T07:02:47;98150.88;;;5.55;100.00
70815;BME280;58428;49.478;10.986;2022-11-15T07:05:14;98155.44;;;5.54;100.00
70815;BME280;58428;49.478;10.986;2022-11-15T07:07:40;98147.69;;;5.53;100.00
70815;BME280;58428;49.478;10.986;2022-11-15T07:10:06;98158.13;;;5.54;100.00
70815;BME280;58428;49.478;10.986;2022-11-15T07:12:33;98150.47;;;5.61;100.00
70815;BME280;58428;49.478;10.986;2022-11-15T07:15:00;98145.63;;;5.63;100.00
70815;BME280;58428;49.478;10.986;2022-11-15T07:17:27;98151.47;;;5.65;100.00
70815;BME280;58428;49.478;10.986;2022-11-15T07:19:53;98147.09;;;5.69;100.00
70815;BME280;58428;49.478;10.986;2022-11-15T07:22:18;98147.97;;;5.78;100.00
70815;BME280;58428;49.478;10.986;2022-11-15T07:24:45;98153.16;;;5.75;100.00
70815;BME280;58428;49.478;10.986;2022-11-15T07:27:12;98150.66;;;5.78;100.00
70815;BME280;58428;49.478;10.986;2022-11-15T07:29:38;98145.50;;;5.82;100.00
70815;BME280;58428;49.478;10.986;2022-11-15T07:32:03;98144.09;;;5.84;100.00
70815;BME280;58428;49.478;10.986;2022-11-15T07:34:29;98140.81;;;5.87;100.00
70815;BME280;58428;49.478;10.986;2022-11-15T07:36:54;98140.81;;;5.87;100.00
70815;BME280;58428;49.478;10.986;2022-11-15T07:39:21;98145.06;;;5.88;100.00
70815;BME280;58428;49.478;10.986;2022-11-15T07:41:47;98143.38;;;5.92;100.00
70815;BME280;58428;49.478;10.986;2022-11-15T07:44:16;98136.69;;;6.03;100.00
70815;BME280;58428;49.478;10.986;2022-11-15T07:46:42;98132.00;;;6.08;100.00
70815;BME280;58428;49.478;10.986;2022-11-15T07:49:10;98139.94;;;6.13;100.00
70815;BME280;58428;49.478;10.986;2022-11-15T07:51:35;98131.47;;;6.20;100.00
70815;BME280;58428;49.478;10.986;2022-11-15T07:54:03;98135.63;;;6.25;100.00
70815;BME280;58428;49.478;10.986;2022-11-15T07:56:29;98136.25;;;6.31;100.00
70815;BME280;58428;49.478;10.986;2022-11-15T07:58:54;98136.94;;;6.36;100.00
70815;BME280;58428;49.478;10.986;2022-11-15T08:01:21;98128.16;;;6.44;100.00
70815;BME280;58428;49.478;10.986;2022-11-15T08:03:46;98128.03;;;6.49;100.00
70815;BME280;58428;49.478;10.986;2022-11-15T08:06:16;98129.50;;;6.55;100.00
70815;BME280;58428;49.478;10.986;2022-11-15T08:08:41;98129.25;;;6.65;100.00
70815;BME280;58428;49.478;10.986;2022-11-15T08:11:09;98123.91;;;6.73;100.00
70815;BME280;58428;49.478;10.986;2022-11-15T08:13:37;98122.19;;;6.77;100.00
70815;BME280;58428;49.478;10.986;2022-11-15T08:16:03;98126.66;;;6.82;100.00
70815;BME280;58428;49.478;10.986;2022-11-15T08:18:32;98125.59;;;6.91;100.00
70815;BME280;58428;49.478;10.986;2022-11-15T08:21:01;98123.13;;;7.03;100.00
70815;BME280;58428;49.478;10.986;2022-11-15T08:23:28;98129.66;;;7.10;100.00
70815;BME280;58428;49.478;10.986;2022-11-15T08:25:59;98123.50;;;7.18;100.00
70815;BME280;58428;49.478;10.986;2022-11-15T08:28:28;98123.38;;;7.32;100.00
70815;BME280;58428;49.478;10.986;2022-11-15T08:30:54;98117.41;;;7.43;100.00
70815;BME280;58428;49.478;10.986;2022-11-15T08:33:19;98121.22;;;7.50;100.00
70815;BME280;58428;49.478;10.986;2022-11-15T08:35:45;98124.56;;;7.56;100.00
70815;BME280;58428;49.478;10.986;2022-11-15T08:38:10;98118.09;;;7.65;100.00
70815;BME280;58428;49.478;10.986;2022-11-15T08:40:37;98114.63;;;7.73;100.00
70815;BME280;58428;49.478;10.986;2022-11-15T08:43:03;98107.34;;;7.82;100.00
70815;BME280;58428;49.478;10.986;2022-11-15T08:45:30;98099.13;;;7.95;100.00
70815;BME280;58428;49.478;10.986;2022-11-15T08:48:00;98102.63;;;8.04;100.00
70815;BME280;58428;49.478;10.986;2022-11-15T08:50:27;98095.03;;;8.14;100.00
70815;BME280;58428;49.478;10.986;2022-11-15T08:52:53;98105.16;;;8.26;100.00
70815;BME280;58428;49.478;10.986;2022-11-15T08:55:18;98099.78;;;8.34;100.00
70815;BME280;58428;49.478;10.986;2022-11-15T08:57:47;98105.31;;;8.46;100.00
70815;BME280;58428;49.478;10.986;2022-11-15T09:00:15;98103.25;;;8.60;100.00
70815;BME280;58428;49.478;10.986;2022-11-15T09:02:40;98099.06;;;8.71;100.00
70815;BME280;58428;49.478;10.986;2022-11-15T09:05:07;98099.69;;;8.84;100.00
70815;BME280;58428;49.478;10.986;2022-11-15T09:07:35;98094.06;;;8.98;100.00
70815;BME280;58428;49.478;10.986;2022-11-15T09:10:01;98095.31;;;9.09;100.00
70815;BME280;58428;49.478;10.986;2022-11-15T09:12:26;98087.16;;;9.17;100.00
70815;BME280;58428;49.478;10.986;2022-11-15T09:14:55;98081.41;;;9.27;100.00
70815;BME280;58428;49.478;10.986;2022-11-15T09:17:21;98083.25;;;9.43;100.00
70815;BME280;58428;49.478;10.986;2022-11-15T09:19:47;98078.25;;;9.53;100.00
70815;BME280;58428;49.478;10.986;2022-11-15T09:22:15;98073.13;;;9.60;100.00
70815;BME280;58428;49.478;10.986;2022-11-15T09:24:42;98065.28;;;9.67;100.00
70815;BME280;58428;49.478;10.986;2022-11-15T09:27:07;98068.91;;;9.71;100.00
70815;BME280;58428;49.478;10.986;2022-11-15T09:29:33;98071.28;;;9.73;100.00
70815;BME280;58428;49.478;10.986;2022-11-15T09:31:59;98069.97;;;9.79;100.00
70815;BME280;58428;49.478;10.986;2022-11-15T09:34:25;98061.00;;;9.87;100.00
70815;BME280;58428;49.478;10.986;2022-11-15T09:36:51;98056.25;;;9.92;100.00
70815;BME280;58428;49.478;10.986;2022-11-15T09:39:16;98055.66;;;10.07;100.00
70815;BME280;58428;49.478;10.986;2022-11-15T09:48:06;98041.69;;;10.37;100.00
70815;BME280;58428;49.478;10.986;2022-11-15T09:50:45;98044.41;;;10.49;100.00
70815;BME280;58428;49.478;10.986;2022-11-15T09:53:14;98046.47;;;10.52;100.00
70815;BME280;58428;49.478;10.986;2022-11-15T09:56:16;98046.03;;;10.62;100.00
70815;BME280;58428;49.478;10.986;2022-11-15T10:04:15;98032.22;;;10.99;100.00
70815;BME280;58428;49.478;10.986;2022-11-15T10:06:51;98029.78;;;11.17;100.00
70815;BME280;58428;49.478;10.986;2022-11-15T10:09:26;98027.38;;;11.28;100.00
70815;BME280;58428;49.478;10.986;2022-11-15T10:11:56;98023.00;;;11.35;100.00
70815;BME280;58428;49.478;10.986;2022-11-15T10:14:25;98018.47;;;11.39;100.00
70815;BME280;58428;49.478;10.986;2022-11-15T10:20:15;98004.81;;;11.47;100.00
70815;BME280;58428;49.478;10.986;2022-11-15T10:22:46;97994.41;;;11.61;100.00
70815;BME280;58428;49.478;10.986;2022-11-15T10:25:42;97991.00;;;11.76;100.00
70815;BME280;58428;49.478;10.986;2022-11-15T10:28:28;97985.19;;;11.89;100.00
70815;BME280;58428;49.478;10.986;2022-11-15T10:30:59;97980.88;;;12.00;100.00
70815;BME280;58428;49.478;10.986;2022-11-15T10:36:32;97969.03;;;12.20;100.00
70815;BME280;58428;49.478;10.986;2022-11-15T10:38:58;97970.09;;;12.31;100.00
70815;BME280;58428;49.478;10.986;2022-11-15T10:41:47;97961.81;;;12.39;100.00
70815;BME280;58428;49.478;10.986;2022-11-15T10:44:31;97955.44;;;12.47;100.00
70815;BME280;58428;49.478;10.986;2022-11-15T10:47:22;97957.19;;;12.55;100.00
70815;BME280;58428;49.478;10.986;2022-11-15T10:52:46;97947.91;;;12.71;100.00
70815;BME280;58428;49.478;10.986;2022-11-15T10:57:50;97946.19;;;12.94;100.00
70815;BME280;58428;49.478;10.986;2022-11-15T11:03:01;97935.22;;;13.06;100.00
70815;BME280;58428;49.478;10.986;2022-11-15T11:05:31;97930.72;;;13.13;100.00
70815;BME280;58428;49.478;10.986;2022-11-15T11:10:27;97928.50;;;13.34;100.00
70815;BME280;58428;49.478;10.986;2022-11-15T11:12:52;97918.59;;;13.41;100.00
70815;BME280;58428;49.478;10.986;2022-11-15T11:15:18;97912.59;;;13.51;100.00
70815;BME280;58428;49.478;10.986;2022-11-15T11:23:44;97902.19;;;13.75;100.00
70815;BME280;58428;49.478;10.986;2022-11-15T11:26:33;97900.84;;;13.85;100.00
70815;BME280;58428;49.478;10.986;2022-11-15T11:37:20;97886.75;;;14.17;100.00
70815;BME280;58428;49.478;10.986;2022-11-15T11:42:53;97874.59;;;14.33;100.00
70815;BME280;58428;49.478;10.986;2022-11-15T11:48:40;97864.50;;;14.34;100.00
70815;BME280;58428;49.478;10.986;2022-11-15T11:51:12;97863.84;;;14.40;100.00
70815;BME280;58428;49.478;10.986;2022-11-15T11:53:54;97862.81;;;14.48;100.00
70815;BME280;58428;49.478;10.986;2022-11-15T11:56:29;97856.25;;;14.52;100.00
70815;BME280;58428;49.478;10.986;2022-11-15T11:59:10;97856.63;;;14.51;100.00
70815;BME280;58428;49.478;10.986;2022-11-15T12:01:42;97854.59;;;14.44;100.00
70815;BME280;58428;49.478;10.986;2022-11-15T12:07:23;97846.34;;;14.41;100.00
70815;BME280;58428;49.478;10.986;2022-11-15T12:09:55;97845.56;;;14.40;100.00
70815;BME280;58428;49.478;10.986;2022-11-15T12:15:12;97843.38;;;14.49;100.00
70815;BME280;58428;49.478;10.986;2022-11-15T12:17:41;97847.69;;;14.50;100.00
70815;BME280;58428;49.478;10.986;2022-11-15T12:20:34;97835.59;;;14.48;100.00
70815;BME280;58428;49.478;10.986;2022-11-15T12:23:15;97838.00;;;14.53;100.00
70815;BME280;58428;49.478;10.986;2022-11-15T12:25:52;97831.94;;;14.63;100.00
70815;BME280;58428;49.478;10.986;2022-11-15T12:31:17;97830.09;;;14.96;100.00
70815;BME280;58428;49.478;10.986;2022-11-15T12:33:47;97829.03;;;15.04;100.00
70815;BME280;58428;49.478;10.986;2022-11-15T12:41:19;97827.28;;;15.14;100.00
70815;BME280;58428;49.478;10.986;2022-11-15T12:43:48;97823.44;;;15.15;100.00
70815;BME280;58428;49.478;10.986;2022-11-15T12:59:57;97797.84;;;15.23;100.00
70815;BME280;58428;49.478;10.986;2022-11-15T13:02:44;97798.81;;;15.12;100.00
70815;BME280;58428;49.478;10.986;2022-11-15T13:17:51;97799.06;;;15.04;100.00
70815;BME280;58428;49.478;10.986;2022-11-15T13:20:19;97799.41;;;14.99;100.00
70815;BME280;58428;49.478;10.986;2022-11-15T13:27:47;97779.56;;;14.98;100.00
70815;BME280;58428;49.478;10.986;2022-11-15T13:30:20;97776.41;;;14.96;100.00
70815;BME280;58428;49.478;10.986;2022-11-15T13:32:46;97770.97;;;14.96;100.00
70815;BME280;58428;49.478;10.986;2022-11-15T13:35:27;97766.13;;;14.86;100.00
70815;BME280;58428;49.478;10.986;2022-11-15T13:37:54;97763.81;;;14.85;100.00
70815;BME280;58428;49.478;10.986;2022-11-15T13:40:28;97765.38;;;14.86;100.00
70815;BME280;58428;49.478;10.986;2022-11-15T13:42:56;97758.38;;;14.85;100.00
70815;BME280;58428;49.478;10.986;2022-11-15T13:45:22;97754.53;;;14.89;100.00
70815;BME280;58428;49.478;10.986;2022-11-15T13:47:57;97754.63;;;14.96;100.00
70815;BME280;58428;49.478;10.986;2022-11-15T13:50:33;97748.06;;;15.01;100.00
70815;BME280;58428;49.478;10.986;2022-11-15T13:53:03;97751.09;;;14.96;100.00
70815;BME280;58428;49.478;10.986;2022-11-15T13:55:30;97749.91;;;14.93;100.00
70815;BME280;58428;49.478;10.986;2022-11-15T13:58:02;97748.34;;;14.92;100.00
70815;BME280;58428;49.478;10.986;2022-11-15T14:00:43;97748.78;;;14.94;100.00
70815;BME280;58428;49.478;10.986;2022-11-15T14:03:32;97743.03;;;15.03;100.00
70815;BME280;58428;49.478;10.986;2022-11-15T14:08:33;97741.09;;;15.03;100.00
70815;BME280;58428;49.478;10.986;2022-11-15T14:11:35;97733.56;;;14.93;100.00
70815;BME280;58428;49.478;10.986;2022-11-15T14:16:40;97753.72;;;14.60;100.00
70815;BME280;58428;49.478;10.986;2022-11-15T14:19:09;97753.09;;;14.44;100.00
70815;BME280;58428;49.478;10.986;2022-11-15T14:21:35;97744.41;;;14.35;100.00
70815;BME280;58428;49.478;10.986;2022-11-15T14:26:46;97737.06;;;14.13;100.00
70815;BME280;58428;49.478;10.986;2022-11-15T14:29:26;97732.22;;;14.03;100.00
70815;BME280;58428;49.478;10.986;2022-11-15T14:31:52;97739.03;;;13.94;100.00
70815;BME280;58428;49.478;10.986;2022-11-15T14:34:19;97727.94;;;13.84;100.00
70815;BME280;58428;49.478;10.986;2022-11-15T14:36:46;97728.63;;;13.77;100.00
70815;BME280;58428;49.478;10.986;2022-11-15T14:39:12;97727.72;;;13.70;100.00
70815;BME280;58428;49.478;10.986;2022-11-15T14:41:37;97725.72;;;13.67;100.00
70815;BME280;58428;49.478;10.986;2022-11-15T14:44:05;97725.53;;;13.57;100.00
70815;BME280;58428;49.478;10.986;2022-11-15T14:46:32;97721.09;;;13.49;100.00
70815;BME280;58428;49.478;10.986;2022-11-15T14:48:59;97715.22;;;13.43;100.00
70815;BME280;58428;49.478;10.986;2022-11-15T14:51:25;97716.28;;;13.39;100.00
70815;BME280;58428;49.478;10.986;2022-11-15T14:53:51;97719.28;;;13.34;100.00
70815;BME280;58428;49.478;10.986;2022-11-15T14:56:17;97704.84;;;13.30;100.00
70815;BME280;58428;49.478;10.986;2022-11-15T14:58:43;97705.13;;;13.25;100.00
70815;BME280;58428;49.478;10.986;2022-11-15T15:01:22;97703.78;;;13.16;100.00
70815;BME280;58428;49.478;10.986;2022-11-15T15:03:50;97702.16;;;13.11;100.00
70815;BME280;58428;49.478;10.986;2022-11-15T15:06:17;97700.09;;;13.05;100.00
70815;BME280;58428;49.478;10.986;2022-11-15T15:08:42;97695.38;;;13.02;100.00